sensor_id;sensor_type;location;lat;lon;timestamp;temperature;humidity
12827;DHT22;66927;48.812;9.118;2024-01-25T00:02:19;9.90;99.90
12827;DHT22;66927;48.812;9.118;2024-01-25T00:04:45;9.90;99.90
12827;DHT22;66927;48.812;9.118;2024-01-25T00:07:11;9.90;99.90
12827;DHT22;66927;48.812;9.118;2024-01-25T00:09:36;9.90;99.90
12827;DHT22;66927;48.812;9.118;2024-01-25T00:12:02;9.90;99.90
12827;DHT22;66927;48.812;9.118;2024-01-25T00:14:28;10.00;99.90
12827;DHT22;66927;48.812;9.118;2024-01-25T00:16:53;10.00;99.90
12827;DHT22;66927;48.812;9.118;2024-01-25T00:19:19;10.00;99.90
12827;DHT22;66927;48.812;9.118;2024-01-25T00:21:45;10.00;99.90
12827;DHT22;66927;48.812;9.118;2024-01-25T00:24:12;10.00;99.90
12827;DHT22;66927;48.812;9.118;2024-01-25T00:26:38;9.90;99.90
12827;DHT22;66927;48.812;9.118;2024-01-25T00:29:05;9.90;99.90
12827;DHT22;66927;48.812;9.118;2024-01-25T00:31:31;9.90;99.90
12827;DHT22;66927;48.812;9.118;2024-01-25T00:33:57;9.90;99.90
12827;DHT22;66927;48.812;9.118;2024-01-25T00:36:24;9.90;99.90
12827;DHT22;66927;48.812;9.118;2024-01-25T00:38:50;9.90;99.90
12827;DHT22;66927;48.812;9.118;2024-01-25T00:41:18;9.90;99.90
12827;DHT22;66927;48.812;9.118;2024-01-25T00:43:45;9.90;99.90
12827;DHT22;66927;48.812;9.118;2024-01-25T00:46:11;10.00;99.90
12827;DHT22;66927;48.812;9.118;2024-01-25T00:48:41;10.00;99.90
12827;DHT22;66927;48.812;9.118;2024-01-25T00:51:08;10.00;99.90
12827;DHT22;66927;48.812;9.118;2024-01-25T00:53:39;10.00;99.90
12827;DHT22;66927;48.812;9.118;2024-01-25T00:56:05;10.10;99.90
12827;DHT22;66927;48.812;9.118;2024-01-25T00:58:31;10.10;99.90
12827;DHT22;66927;48.812;9.118;2024-01-25T01:00:57;10.10;99.90
12827;DHT22;66927;48.812;9.118;2024-01-25T01:03:23;10.10;99.90
12827;DHT22;66927;48.812;9.118;2024-01-25T01:05:49;10.00;99.90
12827;DHT22;66927;48.812;9.118;2024-01-25T01:08:15;10.00;99.90
12827;DHT22;66927;48.812;9.118;2024-01-25T01:10:41;10.00;99.90
12827;DHT22;66927;48.812;9.118;2024-01-25T01:13:06;10.00;99.90
12827;DHT22;66927;48.812;9.118;2024-01-25T01:15:32;10.00;99.90
12827;DHT22;66927;48.812;9.118;2024-01-25T01:17:58;10.00;99.90
12827;DHT22;66927;48.812;9.118;2024-01-25T01:20:23;10.00;99.90
12827;DHT22;66927;48.812;9.118;2024-01-25T01:22:51;10.10;99.90
12827;DHT22;66927;48.812;9.118;2024-01-25T01:25:17;10.10;99.90
12827;DHT22;66927;48.812;9.118;2024-01-25T01:27:43;10.00;99.90
12827;DHT22;66927;48.812;9.118;2024-01-25T01:30:09;10.10;99.90
12827;DHT22;66927;48.812;9.118;2024-01-25T01:32:35;10.10;99.90
12827;DHT22;66927;48.812;9.118;2024-01-25T01:35:01;10.00;99.90
12827;DHT22;66927;48.812;9.118;2024-01-25T01:37:27;10.00;99.90
12827;DHT22;66927;48.812;9.118;2024-01-25T01:39:56;10.10;99.90
12827;DHT22;66927;48.812;9.118;2024-01-25T01:42:23;10.10;99.90
12827;DHT22;66927;48.812;9.118;2024-01-25T01:44:50;10.10;99.90
12827;DHT22;66927;48.812;9.118;2024-01-25T01:47:21;10.10;99.90
12827;DHT22;66927;48.812;9.118;2024-01-25T01:49:47;10.00;99.90
12827;DHT22;66927;48.812;9.118;2024-01-25T01:52:12;10.10;99.90
12827;DHT22;66927;48.812;9.118;2024-01-25T01:54:38;10.10;99.90
12827;DHT22;66927;48.812;9.118;2024-01-25T01:57:05;10.10;99.90
12827;DHT22;66927;48.812;9.118;2024-01-25T01:59:32;10.00;99.90
12827;DHT22;66927;48.812;9.118;2024-01-25T02:01:58;10.00;99.90
12827;DHT22;66927;48.812;9.118;2024-01-25T02:04:23;10.00;99.90
12827;DHT22;66927;48.812;9.118;2024-01-25T02:06:50;10.00;99.90
12827;DHT22;66927;48.812;9.118;2024-01-25T02:09:17;10.00;99.90
12827;DHT22;66927;48.812;9.118;2024-01-25T02:11:42;10.00;99.90
12827;DHT22;66927;48.812;9.118;2024-01-25T02:14:08;10.00;99.90
12827;DHT22;66927;48.812;9.118;2024-01-25T02:16:37;9.90;99.90
12827;DHT22;66927;48.812;9.118;2024-01-25T02:19:03;9.90;99.90
12827;DHT22;66927;48.812;9.118;2024-01-25T02:21:28;9.90;99.90
12827;DHT22;66927;48.812;9.118;2024-01-25T02:23:54;9.90;99.90
12827;DHT22;66927;48.812;9.118;2024-01-25T02:26:19;9.90;99.90
12827;DHT22;66927;48.812;9.118;2024-01-25T02:28:45;9.90;99.90
12827;DHT22;66927;48.812;9.118;2024-01-25T02:31:11;9.90;99.90
12827;DHT22;66927;48.812;9.118;2024-01-25T02:33:36;9.90;99.90
12827;DHT22;66927;48.812;9.118;2024-01-25T02:36:02;9.90;99.90
12827;DHT22;66927;48.812;9.118;2024-01-25T02:38:28;9.90;99.90
12827;DHT22;66927;48.812;9.118;2024-01-25T02:40:53;9.90;99.90
12827;DHT22;66927;48.812;9.118;2024-01-25T02:43:19;9.90;99.90
12827;DHT22;66927;48.812;9.118;2024-01-25T02:45:45;9.80;99.90
12827;DHT22;66927;48.812;9.118;2024-01-25T02:48:11;9.90;99.90
12827;DHT22;66927;48.812;9.118;2024-01-25T02:50:37;9.80;99.90
12827;DHT22;66927;48.812;9.118;2024-01-25T02:53:02;9.80;99.90
12827;DHT22;66927;48.812;9.118;2024-01-25T02:55:28;9.90;99.90
12827;DHT22;66927;48.812;9.118;2024-01-25T02:57:54;9.90;99.90
12827;DHT22;66927;48.812;9.118;2024-01-25T03:00:20;10.00;99.90
12827;DHT22;66927;48.812;9.118;2024-01-25T03:02:46;10.00;99.90
12827;DHT22;66927;48.812;9.118;2024-01-25T03:05:11;9.90;99.90
12827;DHT22;66927;48.812;9.118;2024-01-25T03:07:37;9.90;99.90
12827;DHT22;66927;48.812;9.118;2024-01-25T03:10:03;9.80;99.90
12827;DHT22;66927;48.812;9.118;2024-01-25T03:12:28;9.90;99.90
12827;DHT22;66927;48.812;9.118;2024-01-25T03:14:54;9.80;99.90
12827;DHT22;66927;48.812;9.118;2024-01-25T03:17:20;9.80;99.90
12827;DHT22;66927;48.812;9.118;2024-01-25T03:19:45;9.80;99.90
12827;DHT22;66927;48.812;9.118;2024-01-25T03:22:12;9.80;99.90
12827;DHT22;66927;48.812;9.118;2024-01-25T03:24:38;9.80;99.90
12827;DHT22;66927;48.812;9.118;2024-01-25T03:27:04;9.90;99.90
12827;DHT22;66927;48.812;9.118;2024-01-25T03:29:30;9.80;99.90
12827;DHT22;66927;48.812;9.118;2024-01-25T03:31:57;9.80;99.90
12827;DHT22;66927;48.812;9.118;2024-01-25T03:34:22;9.80;99.90
12827;DHT22;66927;48.812;9.118;2024-01-25T03:36:48;9.80;99.90
12827;DHT22;66927;48.812;9.118;2024-01-25T03:39:18;9.80;99.90
12827;DHT22;66927;48.812;9.118;2024-01-25T03:41:44;9.80;99.90
12827;DHT22;66927;48.812;9.118;2024-01-25T03:44:09;9.80;99.90
12827;DHT22;66927;48.812;9.118;2024-01-25T03:46:35;10.00;99.90
12827;DHT22;66927;48.812;9.118;2024-01-25T03:49:01;9.90;99.90
12827;DHT22;66927;48.812;9.118;2024-01-25T03:51:27;10.00;99.90
12827;DHT22;66927;48.812;9.118;2024-01-25T03:53:53;10.00;99.90
12827;DHT22;66927;48.812;9.118;2024-01-25T03:56:20;10.00;99.90
12827;DHT22;66927;48.812;9.118;2024-01-25T03:58:48;10.00;99.90
12827;DHT22;66927;48.812;9.118;2024-01-25T04:01:13;10.00;99.90
12827;DHT22;66927;48.812;9.118;2024-01-25T04:03:39;10.00;99.90
12827;DHT22;66927;48.812;9.118;2024-01-25T04:06:05;10.00;99.90
12827;DHT22;66927;48.812;9.118;2024-01-25T04:08:30;9.90;99.90
12827;DHT22;66927;48.812;9.118;2024-01-25T04:10:57;10.00;99.90
12827;DHT22;66927;48.812;9.118;2024-01-25T04:13:23;9.90;99.90
12827;DHT22;66927;48.812;9.118;2024-01-25T04:15:48;9.90;99.90
12827;DHT22;66927;48.812;9.118;2024-01-25T04:18:14;9.90;99.90
12827;DHT22;66927;48.812;9.118;2024-01-25T04:20:41;9.80;99.90
12827;DHT22;66927;48.812;9.118;2024-01-25T04:23:07;10.00;99.90
12827;DHT22;66927;48.812;9.118;2024-01-25T04:25:34;10.00;99.90
12827;DHT22;66927;48.812;9.118;2024-01-25T04:28:00;9.90;99.90
12827;DHT22;66927;48.812;9.118;2024-01-25T04:30:26;9.80;99.90
12827;DHT22;66927;48.812;9.118;2024-01-25T04:32:51;9.80;99.90
12827;DHT22;66927;48.812;9.118;2024-01-25T04:35:17;9.80;99.90
12827;DHT22;66927;48.812;9.118;2024-01-25T04:37:43;9.70;99.90
12827;DHT22;66927;48.812;9.118;2024-01-25T04:40:10;9.60;99.90
12827;DHT22;66927;48.812;9.118;2024-01-25T04:42:36;9.60;99.90
12827;DHT22;66927;48.812;9.118;2024-01-25T04:45:02;9.60;99.90
12827;DHT22;66927;48.812;9.118;2024-01-25T04:47:28;9.60;99.90
12827;DHT22;66927;48.812;9.118;2024-01-25T04:49:54;9.60;99.90
12827;DHT22;66927;48.812;9.118;2024-01-25T04:52:19;9.50;99.90
12827;DHT22;66927;48.812;9.118;2024-01-25T04:54:45;9.50;99.90
12827;DHT22;66927;48.812;9.118;2024-01-25T04:57:11;9.40;99.90
12827;DHT22;66927;48.812;9.118;2024-01-25T04:59:36;9.40;99.90
12827;DHT22;66927;48.812;9.118;2024-01-25T05:02:03;9.40;99.90
12827;DHT22;66927;48.812;9.118;2024-01-25T05:04:29;9.30;99.90
12827;DHT22;66927;48.812;9.118;2024-01-25T05:06:55;9.40;99.90
12827;DHT22;66927;48.812;9.118;2024-01-25T05:09:21;9.40;99.90
12827;DHT22;66927;48.812;9.118;2024-01-25T05:11:47;9.40;99.90
12827;DHT22;66927;48.812;9.118;2024-01-25T05:14:12;9.30;99.90
12827;DHT22;66927;48.812;9.118;2024-01-25T05:16:38;9.40;99.90
12827;DHT22;66927;48.812;9.118;2024-01-25T05:19:04;9.30;99.90
12827;DHT22;66927;48.812;9.118;2024-01-25T05:21:29;9.30;99.90
12827;DHT22;66927;48.812;9.118;2024-01-25T05:23:55;9.30;99.90
12827;DHT22;66927;48.812;9.118;2024-01-25T05:26:20;9.30;99.90
12827;DHT22;66927;48.812;9.118;2024-01-25T05:28:46;9.20;99.90
12827;DHT22;66927;48.812;9.118;2024-01-25T05:31:12;9.20;99.90
12827;DHT22;66927;48.812;9.118;2024-01-25T05:33:39;9.10;99.90
12827;DHT22;66927;48.812;9.118;2024-01-25T05:36:06;9.10;99.90
12827;DHT22;66927;48.812;9.118;2024-01-25T05:38:32;9.10;99.90
12827;DHT22;66927;48.812;9.118;2024-01-25T05:40:58;9.00;99.90
12827;DHT22;66927;48.812;9.118;2024-01-25T05:43:24;9.10;99.90
12827;DHT22;66927;48.812;9.118;2024-01-25T05:45:52;9.10;99.90
12827;DHT22;66927;48.812;9.118;2024-01-25T05:48:18;9.10;99.90
12827;DHT22;66927;48.812;9.118;2024-01-25T05:50:44;9.00;99.90
12827;DHT22;66927;48.812;9.118;2024-01-25T05:53:10;9.00;99.90
12827;DHT22;66927;48.812;9.118;2024-01-25T05:55:36;9.00;99.90
12827;DHT22;66927;48.812;9.118;2024-01-25T05:58:01;8.90;99.90
12827;DHT22;66927;48.812;9.118;2024-01-25T06:00:27;8.90;99.90
12827;DHT22;66927;48.812;9.118;2024-01-25T06:02:54;8.90;99.90
12827;DHT22;66927;48.812;9.118;2024-01-25T06:05:19;8.90;99.90
12827;DHT22;66927;48.812;9.118;2024-01-25T06:07:45;8.90;99.90
12827;DHT22;66927;48.812;9.118;2024-01-25T06:10:11;8.90;99.90
12827;DHT22;66927;48.812;9.118;2024-01-25T06:12:36;8.80;99.90
12827;DHT22;66927;48.812;9.118;2024-01-25T06:15:02;8.80;99.90
12827;DHT22;66927;48.812;9.118;2024-01-25T06:17:28;8.80;99.90
12827;DHT22;66927;48.812;9.118;2024-01-25T06:19:53;8.80;99.90
12827;DHT22;66927;48.812;9.118;2024-01-25T06:22:19;8.90;99.90
12827;DHT22;66927;48.812;9.118;2024-01-25T06:24:47;8.80;99.90
12827;DHT22;66927;48.812;9.118;2024-01-25T06:27:12;8.90;99.90
12827;DHT22;66927;48.812;9.118;2024-01-25T06:29:38;8.90;99.90
12827;DHT22;66927;48.812;9.118;2024-01-25T06:32:04;8.90;99.90
12827;DHT22;66927;48.812;9.118;2024-01-25T06:34:29;9.00;99.90
12827;DHT22;66927;48.812;9.118;2024-01-25T06:36:55;8.80;99.90
12827;DHT22;66927;48.812;9.118;2024-01-25T06:39:20;8.90;99.90
12827;DHT22;66927;48.812;9.118;2024-01-25T06:41:47;8.90;99.90
12827;DHT22;66927;48.812;9.118;2024-01-25T06:44:14;8.90;99.90
12827;DHT22;66927;48.812;9.118;2024-01-25T06:46:39;8.80;99.90
12827;DHT22;66927;48.812;9.118;2024-01-25T06:49:05;8.70;99.90
12827;DHT22;66927;48.812;9.118;2024-01-25T06:51:32;8.70;99.90
12827;DHT22;66927;48.812;9.118;2024-01-25T06:53:58;8.70;99.90
12827;DHT22;66927;48.812;9.118;2024-01-25T06:56:24;8.70;99.90
12827;DHT22;66927;48.812;9.118;2024-01-25T06:58:49;8.70;99.90
12827;DHT22;66927;48.812;9.118;2024-01-25T07:01:23;8.70;99.90
12827;DHT22;66927;48.812;9.118;2024-01-25T07:03:49;8.70;99.90
12827;DHT22;66927;48.812;9.118;2024-01-25T07:06:18;8.70;99.90
12827;DHT22;66927;48.812;9.118;2024-01-25T07:08:45;8.70;99.90
12827;DHT22;66927;48.812;9.118;2024-01-25T07:11:10;8.70;99.90
12827;DHT22;66927;48.812;9.118;2024-01-25T07:13:36;8.80;99.90
12827;DHT22;66927;48.812;9.118;2024-01-25T07:16:02;8.70;99.90
12827;DHT22;66927;48.812;9.118;2024-01-25T07:18:28;8.60;99.90
12827;DHT22;66927;48.812;9.118;2024-01-25T07:20:54;8.70;99.90
12827;DHT22;66927;48.812;9.118;2024-01-25T07:23:21;8.70;99.90
12827;DHT22;66927;48.812;9.118;2024-01-25T07:25:47;8.70;99.90
12827;DHT22;66927;48.812;9.118;2024-01-25T07:28:12;8.70;99.90
12827;DHT22;66927;48.812;9.118;2024-01-25T07:30:38;8.70;99.90
12827;DHT22;66927;48.812;9.118;2024-01-25T07:33:04;8.70;99.90
12827;DHT22;66927;48.812;9.118;2024-01-25T07:35:30;8.80;99.90
12827;DHT22;66927;48.812;9.118;2024-01-25T07:37:55;8.90;99.90
12827;DHT22;66927;48.812;9.118;2024-01-25T07:40:21;8.80;99.90
12827;DHT22;66927;48.812;9.118;2024-01-25T07:42:47;8.90;99.90
12827;DHT22;66927;48.812;9.118;2024-01-25T07:45:13;8.80;99.90
12827;DHT22;66927;48.812;9.118;2024-01-25T07:47:41;8.80;99.90
12827;DHT22;66927;48.812;9.118;2024-01-25T07:50:07;8.70;99.90
12827;DHT22;66927;48.812;9.118;2024-01-25T07:52:33;8.60;99.90
12827;DHT22;66927;48.812;9.118;2024-01-25T07:54:59;8.60;99.90
12827;DHT22;66927;48.812;9.118;2024-01-25T07:57:25;8.60;99.90
12827;DHT22;66927;48.812;9.118;2024-01-25T07:59:50;8.50;99.90
12827;DHT22;66927;48.812;9.118;2024-01-25T08:02:16;8.60;99.90
12827;DHT22;66927;48.812;9.118;2024-01-25T08:04:42;8.50;99.90
12827;DHT22;66927;48.812;9.118;2024-01-25T08:07:08;8.50;99.90
12827;DHT22;66927;48.812;9.118;2024-01-25T08:09:34;8.50;99.90
12827;DHT22;66927;48.812;9.118;2024-01-25T08:12:00;8.40;99.90
12827;DHT22;66927;48.812;9.118;2024-01-25T08:14:26;8.40;99.90
12827;DHT22;66927;48.812;9.118;2024-01-25T08:16:55;8.50;99.90
12827;DHT22;66927;48.812;9.118;2024-01-25T08:19:21;8.40;99.90
12827;DHT22;66927;48.812;9.118;2024-01-25T08:21:47;8.50;99.90
12827;DHT22;66927;48.812;9.118;2024-01-25T08:24:12;8.60;99.90
12827;DHT22;66927;48.812;9.118;2024-01-25T08:26:38;8.60;99.90
12827;DHT22;66927;48.812;9.118;2024-01-25T08:29:05;8.50;99.90
12827;DHT22;66927;48.812;9.118;2024-01-25T08:31:31;8.60;99.90
12827;DHT22;66927;48.812;9.118;2024-01-25T08:33:57;8.70;99.90
12827;DHT22;66927;48.812;9.118;2024-01-25T08:36:22;8.70;99.90
12827;DHT22;66927;48.812;9.118;2024-01-25T08:38:48;8.80;99.90
12827;DHT22;66927;48.812;9.118;2024-01-25T08:41:14;8.90;99.90
12827;DHT22;66927;48.812;9.118;2024-01-25T08:43:41;8.90;99.90
12827;DHT22;66927;48.812;9.118;2024-01-25T08:46:06;9.00;99.90
12827;DHT22;66927;48.812;9.118;2024-01-25T08:48:32;9.00;99.90
12827;DHT22;66927;48.812;9.118;2024-01-25T08:50:59;9.00;99.90
12827;DHT22;66927;48.812;9.118;2024-01-25T08:53:25;9.10;99.90
12827;DHT22;66927;48.812;9.118;2024-01-25T08:55:55;9.10;99.90
12827;DHT22;66927;48.812;9.118;2024-01-25T08:58:21;9.10;99.90
12827;DHT22;66927;48.812;9.118;2024-01-25T09:00:47;9.20;99.90
12827;DHT22;66927;48.812;9.118;2024-01-25T09:03:14;9.20;99.90
12827;DHT22;66927;48.812;9.118;2024-01-25T09:05:40;9.20;99.90
12827;DHT22;66927;48.812;9.118;2024-01-25T09:08:11;9.20;99.90
12827;DHT22;66927;48.812;9.118;2024-01-25T09:10:37;9.20;99.90
12827;DHT22;66927;48.812;9.118;2024-01-25T09:13:04;9.20;99.90
12827;DHT22;66927;48.812;9.118;2024-01-25T09:15:30;9.30;99.90
12827;DHT22;66927;48.812;9.118;2024-01-25T09:17:55;9.20;99.90
12827;DHT22;66927;48.812;9.118;2024-01-25T09:20:21;9.30;99.90
12827;DHT22;66927;48.812;9.118;2024-01-25T09:22:46;9.30;99.90
12827;DHT22;66927;48.812;9.118;2024-01-25T09:25:12;9.30;99.90
12827;DHT22;66927;48.812;9.118;2024-01-25T09:27:38;9.30;99.90
12827;DHT22;66927;48.812;9.118;2024-01-25T09:30:05;9.40;99.90
12827;DHT22;66927;48.812;9.118;2024-01-25T09:32:35;9.40;99.90
12827;DHT22;66927;48.812;9.118;2024-01-25T09:35:01;9.50;99.90
12827;DHT22;66927;48.812;9.118;2024-01-25T09:37:27;9.60;99.90
12827;DHT22;66927;48.812;9.118;2024-01-25T09:39:52;9.70;99.90
12827;DHT22;66927;48.812;9.118;2024-01-25T09:42:18;9.70;99.90
12827;DHT22;66927;48.812;9.118;2024-01-25T09:44:44;9.80;99.90
12827;DHT22;66927;48.812;9.118;2024-01-25T09:47:11;9.90;99.90
12827;DHT22;66927;48.812;9.118;2024-01-25T09:49:37;10.00;99.90
12827;DHT22;66927;48.812;9.118;2024-01-25T09:52:04;10.00;99.90
12827;DHT22;66927;48.812;9.118;2024-01-25T09:54:34;10.00;99.90
12827;DHT22;66927;48.812;9.118;2024-01-25T09:57:15;10.10;99.90
12827;DHT22;66927;48.812;9.118;2024-01-25T09:59:43;10.10;99.90
12827;DHT22;66927;48.812;9.118;2024-01-25T10:02:09;10.20;99.90
12827;DHT22;66927;48.812;9.118;2024-01-25T10:04:37;10.10;99.90
12827;DHT22;66927;48.812;9.118;2024-01-25T10:07:03;10.10;99.90
12827;DHT22;66927;48.812;9.118;2024-01-25T10:09:38;10.20;99.90
12827;DHT22;66927;48.812;9.118;2024-01-25T10:12:04;10.20;99.90
12827;DHT22;66927;48.812;9.118;2024-01-25T10:14:30;10.20;99.90
12827;DHT22;66927;48.812;9.118;2024-01-25T10:16:57;10.20;99.90
12827;DHT22;66927;48.812;9.118;2024-01-25T10:19:23;10.30;99.90
12827;DHT22;66927;48.812;9.118;2024-01-25T10:21:49;10.20;99.90
12827;DHT22;66927;48.812;9.118;2024-01-25T10:24:16;10.20;99.90
12827;DHT22;66927;48.812;9.118;2024-01-25T10:26:41;10.20;99.90
12827;DHT22;66927;48.812;9.118;2024-01-25T10:29:08;10.30;99.90
12827;DHT22;66927;48.812;9.118;2024-01-25T10:31:38;10.30;99.90
12827;DHT22;66927;48.812;9.118;2024-01-25T10:34:05;10.40;99.90
12827;DHT22;66927;48.812;9.118;2024-01-25T10:36:33;10.50;99.90
12827;DHT22;66927;48.812;9.118;2024-01-25T10:39:03;10.60;99.90
12827;DHT22;66927;48.812;9.118;2024-01-25T10:41:31;10.70;99.90
12827;DHT22;66927;48.812;9.118;2024-01-25T10:43:57;10.70;99.90
12827;DHT22;66927;48.812;9.118;2024-01-25T10:46:24;10.90;99.90
12827;DHT22;66927;48.812;9.118;2024-01-25T10:48:51;10.90;99.90
12827;DHT22;66927;48.812;9.118;2024-01-25T10:51:17;11.00;99.90
12827;DHT22;66927;48.812;9.118;2024-01-25T10:53:46;11.20;99.90
12827;DHT22;66927;48.812;9.118;2024-01-25T10:56:12;11.30;99.90
12827;DHT22;66927;48.812;9.118;2024-01-25T10:58:41;11.50;99.90
12827;DHT22;66927;48.812;9.118;2024-01-25T11:01:10;11.60;99.90
12827;DHT22;66927;48.812;9.118;2024-01-25T11:03:36;11.60;99.90
12827;DHT22;66927;48.812;9.118;2024-01-25T11:06:10;11.60;99.90
12827;DHT22;66927;48.812;9.118;2024-01-25T11:08:36;11.80;99.90
12827;DHT22;66927;48.812;9.118;2024-01-25T11:11:05;11.70;99.90
12827;DHT22;66927;48.812;9.118;2024-01-25T11:13:33;11.70;99.90
12827;DHT22;66927;48.812;9.118;2024-01-25T11:15:59;11.80;99.90
12827;DHT22;66927;48.812;9.118;2024-01-25T11:18:46;11.70;99.90
12827;DHT22;66927;48.812;9.118;2024-01-25T11:21:11;11.80;99.90
12827;DHT22;66927;48.812;9.118;2024-01-25T11:23:43;12.00;99.90
12827;DHT22;66927;48.812;9.118;2024-01-25T11:26:08;12.10;99.90
12827;DHT22;66927;48.812;9.118;2024-01-25T11:28:34;12.10;99.90
12827;DHT22;66927;48.812;9.118;2024-01-25T11:31:03;12.10;99.90
12827;DHT22;66927;48.812;9.118;2024-01-25T11:33:29;12.10;99.90
12827;DHT22;66927;48.812;9.118;2024-01-25T11:35:55;11.90;99.90
12827;DHT22;66927;48.812;9.118;2024-01-25T11:38:21;11.80;99.90
12827;DHT22;66927;48.812;9.118;2024-01-25T11:40:47;11.80;99.90
12827;DHT22;66927;48.812;9.118;2024-01-25T11:43:12;11.80;99.90
12827;DHT22;66927;48.812;9.118;2024-01-25T11:45:39;11.80;99.90
12827;DHT22;66927;48.812;9.118;2024-01-25T11:48:08;11.90;99.90
12827;DHT22;66927;48.812;9.118;2024-01-25T11:50:33;11.90;99.90
12827;DHT22;66927;48.812;9.118;2024-01-25T11:53:00;11.90;99.90
12827;DHT22;66927;48.812;9.118;2024-01-25T11:55:28;12.00;99.90
12827;DHT22;66927;48.812;9.118;2024-01-25T11:57:54;12.10;99.90
12827;DHT22;66927;48.812;9.118;2024-01-25T12:00:19;12.30;99.90
12827;DHT22;66927;48.812;9.118;2024-01-25T12:02:45;12.40;99.90
12827;DHT22;66927;48.812;9.118;2024-01-25T12:05:11;12.40;99.90
12827;DHT22;66927;48.812;9.118;2024-01-25T12:07:39;12.30;99.90
12827;DHT22;66927;48.812;9.118;2024-01-25T12:10:06;12.40;99.90
12827;DHT22;66927;48.812;9.118;2024-01-25T12:12:37;12.50;99.90
12827;DHT22;66927;48.812;9.118;2024-01-25T12:15:06;12.60;99.90
12827;DHT22;66927;48.812;9.118;2024-01-25T12:17:33;12.80;99.90
12827;DHT22;66927;48.812;9.118;2024-01-25T12:20:02;12.90;99.90
12827;DHT22;66927;48.812;9.118;2024-01-25T12:22:28;13.00;99.90
12827;DHT22;66927;48.812;9.118;2024-01-25T12:24:58;13.10;99.90
12827;DHT22;66927;48.812;9.118;2024-01-25T12:27:27;13.20;99.90
12827;DHT22;66927;48.812;9.118;2024-01-25T12:29:56;13.30;99.90
12827;DHT22;66927;48.812;9.118;2024-01-25T12:32:23;13.40;99.90
12827;DHT22;66927;48.812;9.118;2024-01-25T12:34:57;13.60;99.90
12827;DHT22;66927;48.812;9.118;2024-01-25T12:37:23;13.80;99.90
12827;DHT22;66927;48.812;9.118;2024-01-25T12:39:52;13.80;99.90
12827;DHT22;66927;48.812;9.118;2024-01-25T12:42:21;13.90;99.90
12827;DHT22;66927;48.812;9.118;2024-01-25T12:44:48;14.00;99.90
12827;DHT22;66927;48.812;9.118;2024-01-25T12:47:14;14.10;99.90
12827;DHT22;66927;48.812;9.118;2024-01-25T12:49:40;14.20;99.90
12827;DHT22;66927;48.812;9.118;2024-01-25T12:52:08;14.20;99.90
12827;DHT22;66927;48.812;9.118;2024-01-25T12:54:34;14.20;99.90
12827;DHT22;66927;48.812;9.118;2024-01-25T12:57:08;14.00;99.90
12827;DHT22;66927;48.812;9.118;2024-01-25T12:59:37;14.10;99.90
12827;DHT22;66927;48.812;9.118;2024-01-25T13:02:04;14.20;99.90
12827;DHT22;66927;48.812;9.118;2024-01-25T13:04:30;14.10;99.90
12827;DHT22;66927;48.812;9.118;2024-01-25T13:06:56;14.10;99.90
12827;DHT22;66927;48.812;9.118;2024-01-25T13:09:22;14.10;99.90
12827;DHT22;66927;48.812;9.118;2024-01-25T13:11:48;14.10;99.90
12827;DHT22;66927;48.812;9.118;2024-01-25T13:14:14;14.10;99.90
12827;DHT22;66927;48.812;9.118;2024-01-25T13:16:41;14.10;99.90
12827;DHT22;66927;48.812;9.118;2024-01-25T13:19:07;14.10;99.90
12827;DHT22;66927;48.812;9.118;2024-01-25T13:21:32;14.20;99.90
12827;DHT22;66927;48.812;9.118;2024-01-25T13:24:01;14.20;99.90
12827;DHT22;66927;48.812;9.118;2024-01-25T13:26:27;14.20;99.90
12827;DHT22;66927;48.812;9.118;2024-01-25T13:28:53;14.20;99.90
12827;DHT22;66927;48.812;9.118;2024-01-25T13:31:19;14.30;99.90
12827;DHT22;66927;48.812;9.118;2024-01-25T13:33:46;14.20;99.90
12827;DHT22;66927;48.812;9.118;2024-01-25T13:36:12;14.20;99.90
12827;DHT22;66927;48.812;9.118;2024-01-25T13:38:40;14.20;99.90
12827;DHT22;66927;48.812;9.118;2024-01-25T13:41:06;14.20;99.90
12827;DHT22;66927;48.812;9.118;2024-01-25T13:43:32;14.10;99.90
12827;DHT22;66927;48.812;9.118;2024-01-25T13:45:57;14.10;99.90
12827;DHT22;66927;48.812;9.118;2024-01-25T13:48:23;14.00;99.90
12827;DHT22;66927;48.812;9.118;2024-01-25T13:50:49;13.90;99.90
12827;DHT22;66927;48.812;9.118;2024-01-25T13:53:14;13.90;99.90
12827;DHT22;66927;48.812;9.118;2024-01-25T13:55:40;13.80;99.90
12827;DHT22;66927;48.812;9.118;2024-01-25T13:58:06;13.70;99.90
12827;DHT22;66927;48.812;9.118;2024-01-25T14:00:31;13.60;99.90
12827;DHT22;66927;48.812;9.118;2024-01-25T14:02:57;13.60;99.90
12827;DHT22;66927;48.812;9.118;2024-01-25T14:05:23;13.40;99.90
12827;DHT22;66927;48.812;9.118;2024-01-25T14:07:48;13.40;99.90
12827;DHT22;66927;48.812;9.118;2024-01-25T14:10:14;13.30;99.90
12827;DHT22;66927;48.812;9.118;2024-01-25T14:12:40;13.30;99.90
12827;DHT22;66927;48.812;9.118;2024-01-25T14:15:07;13.30;99.90
12827;DHT22;66927;48.812;9.118;2024-01-25T14:17:33;13.30;99.90
12827;DHT22;66927;48.812;9.118;2024-01-25T14:20:02;13.30;99.90
12827;DHT22;66927;48.812;9.118;2024-01-25T14:22:28;13.30;99.90
12827;DHT22;66927;48.812;9.118;2024-01-25T14:24:54;13.30;99.90
12827;DHT22;66927;48.812;9.118;2024-01-25T14:27:20;13.20;99.90
12827;DHT22;66927;48.812;9.118;2024-01-25T14:29:45;13.20;99.90
12827;DHT22;66927;48.812;9.118;2024-01-25T14:32:11;13.10;99.90
12827;DHT22;66927;48.812;9.118;2024-01-25T14:34:36;13.00;99.90
12827;DHT22;66927;48.812;9.118;2024-01-25T14:37:04;12.90;99.90
12827;DHT22;66927;48.812;9.118;2024-01-25T14:39:30;12.90;99.90
12827;DHT22;66927;48.812;9.118;2024-01-25T14:41:56;12.80;99.90
12827;DHT22;66927;48.812;9.118;2024-01-25T14:44:21;12.80;99.90
12827;DHT22;66927;48.812;9.118;2024-01-25T14:46:47;12.60;99.90
12827;DHT22;66927;48.812;9.118;2024-01-25T14:49:13;12.60;99.90
12827;DHT22;66927;48.812;9.118;2024-01-25T14:51:38;12.50;99.90
12827;DHT22;66927;48.812;9.118;2024-01-25T14:54:04;12.50;99.90
12827;DHT22;66927;48.812;9.118;2024-01-25T14:56:30;12.40;99.90
12827;DHT22;66927;48.812;9.118;2024-01-25T14:58:57;12.40;99.90
12827;DHT22;66927;48.812;9.118;2024-01-25T15:01:22;12.40;99.90
12827;DHT22;66927;48.812;9.118;2024-01-25T15:03:54;12.40;99.90
12827;DHT22;66927;48.812;9.118;2024-01-25T15:06:21;12.30;99.90
12827;DHT22;66927;48.812;9.118;2024-01-25T15:08:47;12.30;99.90
12827;DHT22;66927;48.812;9.118;2024-01-25T15:11:12;12.20;99.90
12827;DHT22;66927;48.812;9.118;2024-01-25T15:13:38;12.20;99.90
12827;DHT22;66927;48.812;9.118;2024-01-25T15:16:07;12.20;99.90
12827;DHT22;66927;48.812;9.118;2024-01-25T15:18:33;12.20;99.90
12827;DHT22;66927;48.812;9.118;2024-01-25T15:20:59;12.20;99.90
12827;DHT22;66927;48.812;9.118;2024-01-25T15:23:25;12.20;99.90
12827;DHT22;66927;48.812;9.118;2024-01-25T15:25:51;12.20;99.90
12827;DHT22;66927;48.812;9.118;2024-01-25T15:28:17;12.10;99.90
12827;DHT22;66927;48.812;9.118;2024-01-25T15:30:46;12.10;99.90
12827;DHT22;66927;48.812;9.118;2024-01-25T15:33:15;12.10;99.90